Pagrindinis puslapis
METAR-TAF:

METAR-TAF

Oro uostai :

Ahras, Turkija

platuma: 39-39-16N, ilguma: 43-01-38E, Aukštis: 1665 m

Dabartinis oras

Ataskaita buvo paskelbta 7 valandos ir 19 minutes, ne 13:50 UTC
Vėjas 4 kt iš Pietų/Pietvakarių
Temperatūra 3°C
Drėgmė 87%
Slėgis 1020 hPa
Matomumas: 2500 m
Išsisklaidę debesys ne aukštis 2500 ft
Su prošvaistėmis ne aukštis 6000 ft
rūkana

METAR: LTCO 151350Z 20004KT 2500 BR SCT025 BKN060 03/01 Q1020

Laikas: 00:09 (21:09 UTC)

Prognozė

Ataskaita buvo paskelbta 7 valandos ir 29 minutes, ne 13:40 UTC
Prognozė galioja nuo 15 metu 15 UTC su 15 metu 24 UTC
Vėjas 2 kt nuo kintamojo kryptimis
Matomumas: 2500 m
Išsisklaidę debesys ne aukštis 2500 ft
Su prošvaistėmis ne aukštis 6000 ft
rūkana

TAF: LTCO 151340Z 1515/1524 VRB02KT 2500 BR SCT025 BKN060

Orai ataskaitas ir orų prognozės (METAR, TAF).

turimą stotys yra geltonos ir raudonos taškus žemėlapyje.

Perkelti pele per norėdami pamatyti stoties vardą.

Tada spustelėkite, norėdami matyti oro stebėjimo ir prognozės.

Norėdami pakeisti žemėlapį: spustelėkite ant žalios mygtukų su juodo kryžiaus žemyn,; žalią mygtuką su brūkšneliu, jei norite nutolinti; arba žalių rodyklių gretimoms žemėlapius.


METAR-TAF: